Observations for ABERDEEN DYCE, United Kingdom (EGPD)

EGPD 231050Z 17019KT 9000 -RA BKN008 BKN025 11/10 Q1009 TEMPO BKN010
EGPD 231020Z AUTO 17016KT 9999 SCT011 BKN024 OVC029 11/09 Q1009 TEMPO BKN011
EGPD 230950Z 15011KT 9999 -RA FEW014 SCT027 11/09 Q1009 NOSIG   
EGPD 230920Z 16010KT 9999 VCSH SCT035 10/09 Q1009 TEMPO SHRA
EGPD 230850Z AUTO 16010KT 9999 -RA NCD 10/08 Q1009 NOSIG
EGPD 230820Z AUTO 16007KT 9999 NCD 09/07 Q1010 NOSIG
EGPD 230750Z AUTO 17013KT 9999 NCD 08/06 Q1010 NOSIG
EGPD 230720Z AUTO 16008KT 9999 NCD 08/05 Q1010 NOSIG
EGPD 230650Z AUTO 16006KT 9999 NCD 07/05 Q1010 NOSIG
EGPD 230620Z AUTO 17009KT 9999 NCD 07/04 Q1010 NOSIG
EGPD 230550Z AUTO 18007KT 9999 NCD 05/05 Q1010 NOSIG
EGPD 230520Z AUTO VRB03KT 9999 NCD 04/04 Q1010 NOSIG
EGPD 230450Z AUTO VRB03KT 9999 NCD 05/04 Q1010 NOSIG
EGPD 230420Z AUTO 00000KT 9999 NCD 05/04 Q1011 NOSIG
EGPD 230350Z AUTO 35001KT 9999 FEW027 04/03 Q1011 NOSIG 
EGPD 230320Z AUTO 01002KT 9999 NCD 04/03 Q1011 NOSIG
EGPD 230250Z AUTO VRB02KT 9999 NCD 06/05 Q1011 NOSIG
EGPD 230220Z AUTO VRB01KT 9999 NCD 05/04 Q1011  
EGPD 230150Z AUTO VRB01KT 9999 NCD 06/04 Q1011  
EGPD 230120Z AUTO VRB02KT 9999 NCD 06/05 Q1011  
EGPD 230050Z AUTO VRB01KT 9999 NCD 06/05 Q1011  
EGPD 230020Z AUTO 05002KT 9999 NCD 07/05 Q1010 NOSIG
EGPD 222350Z AUTO 30005KT 260V010 9999 NCD 08/06 Q1010 NOSIG
EGPD 222320Z AUTO 28007KT 9999 NCD 09/06 Q1010 NOSIG
EGPD 222250Z AUTO 29010KT 9999 SCT036 09/07 Q1010 NOSIG 
EGPD 222220Z AUTO 28008KT 9999 BKN033 OVC041 09/07 Q1010 NOSIG  
EGPD 222150Z AUTO 29008KT 9999 BKN033 09/07 Q1010 NOSIG 
EGPD 222120Z AUTO 30010KT 9999 BKN038 10/07 Q1009 NOSIG 
EGPD 222050Z AUTO 30011KT 9999 SCT029 OVC042 10/08 Q1009 NOSIG  
EGPD 222020Z AUTO 29011KT 270V360 9999 BKN027 10/08 Q1009 NOSIG 
EGPD 221950Z AUTO 30012KT 9999 FEW018 10/08 Q1009 NOSIG 
EGPD 221920Z AUTO 31012KT 9999 SCT016 10/08 Q1008 NOSIG 
EGPD 221850Z AUTO 30010KT 9999 NCD 10/08 Q1008 NOSIG
EGPD 221820Z AUTO 30012KT 9999 NCD 11/09 Q1007 NOSIG
EGPD 221750Z AUTO 30013KT 9999 NCD 11/09 Q1007 NOSIG
EGPD 221720Z AUTO 30013KT 9999 SCT014 BKN019 BKN026 11/09 Q1006 NOSIG   
EGPD 221650Z AUTO 30012KT 9999 FEW018 SCT025 11/09 Q1006 NOSIG  
EGPD 221620Z AUTO 31012KT 9999 NCD 12/09 Q1005 NOSIG
EGPD 221550Z AUTO 32015KT 9999 FEW019 SCT042 BKN048 13/10 Q1005 NOSIG   
EGPD 221520Z AUTO 32015KT 9999 BKN020 BKN028 BKN036 13/10 Q1004 NOSIG   
EGPD 221450Z AUTO 32013KT 9999 BKN016 BKN025 OVC039 13/10 Q1004 TEMPO SHRA  
EGPD 221420Z 31017KT 9999 VCSH BKN016 BKN035 13/10 Q1004 NOSIG  
EGPD 221350Z AUTO 31018KT 9999 BKN013 13/10 Q1003 TEMPO SCT013  
EGPD 221320Z AUTO 31018KT 9999 BKN012 OVC022 13/10 Q1003 TEMPO SCT012   
EGPD 221250Z AUTO 32016KT 9999 SCT013 13/11 Q1002 NOSIG 
EGPD 221220Z 32016KT 9999 4000W VCSH SCT011 BKN032 13/11 Q1002 NOSIG
EGPD 221150Z 33017KT 9999 -SHRA SCT014 BKN030 13/11 Q1001 NOSIG 
EGPD 221120Z AUTO 33014KT 8000 SCT012 BKN033 BKN039 12/11 Q1001 NOSIG   
EGPD 221050Z AUTO 32014KT 4400 -DZ BKN010 BKN024 BKN033 12/11 Q1000 TEMPO RA